Flight Track Log - Related Links

Times and Time Zones

All times are in EDT time to prevent confusion due to time zone crossing. See the UAL582 flight status page for this flight to view local times or setup timezone preferences in your user account.

Time Position Orientation Groundspeed Altitude Reporting Facility
EDT Latitude Longitude Course Direction KTS MPH feet Rate Location/Type
Sun 05:24:02 PM 43.6833 -79.6167 270° West 20 23 900  Level Toronto Center
Sun 05:25:02 PM 43.7167 -79.5667 47° Northeast 200 230 3,300 2,700 Climbing Toronto Center
Sun 05:26:02 PM 43.7833 -79.5833 350° North 270 311 6,300 3,450 Climbing Toronto Center
Sun 05:27:00 PM 43.7117 -80.1065 277° West  Level FlightAware Approximate
Sun 05:27:02 PM 43.7667 -79.7000 259° West 280 322 10,200  Level Toronto Center
Sun 05:28:00 PM 43.7179 -80.2302 277° West  Level FlightAware Approximate
Sun 05:28:02 PM 43.7667 -79.8167 270° West 330 380 12,200  Level Toronto Center
Sun 05:29:00 PM 43.7291 -80.3534 277° West  Level FlightAware Approximate
Sun 05:29:02 PM 43.7667 -79.9500 270° West 370 426 14,500  Level Toronto Center
Sun 05:30:00 PM 43.7334 -80.4924 270° West  Level FlightAware Approximate
Sun 05:30:02 PM 43.7667 -80.1000 270° West 380 437 17,300  Level Toronto Center
Sun 05:31:02 PM 43.7667 -80.2500 270° West 390 449 19,500 2,067 Climbing Toronto Center
Sun 05:33:02 PM 43.7667 -80.5833 270° West 420 483 23,500 1,933 Climbing Toronto Center
Sun 05:34:02 PM 43.7333 -80.7333 253° West 430 495 25,300 1,600 Climbing Toronto Center
Sun 05:35:02 PM 43.6833 -80.9000 248° West 440 506 26,700 1,450 Climbing Toronto Center
Sun 05:36:02 PM 43.6500 -81.0667 255° West 450 518 28,200 1,750 Climbing Toronto Center
Sun 05:37:02 PM 43.6167 -81.2167 253° West 450 518 30,200 1,800 Climbing Toronto Center
Sun 05:38:02 PM 43.5833 -81.3833 255° West 440 506 31,800 900 Climbing Toronto Center
Sun 05:39:02 PM 43.5333 -81.5500 248° West 440 506 32,000 100 Climbing Toronto Center
Sun 05:40:02 PM 43.5000 -81.7000 253° West 440 506 32,000 -50 Level Toronto Center
Sun 05:41:02 PM 43.4667 -81.8667 255° West 440 506 31,900 -35 Descending Toronto Center
Sun 05:42:52 PM 43.4019 -82.1519 253° West 442 509 31,900 35 Level Cleveland Center
Sun 05:43:52 PM 43.3600 -82.3078 250° West 442 509 32,000 50 Climbing Cleveland Center
Sun 05:44:52 PM 43.3200 -82.4664 251° West 442 509 32,000  Level Cleveland Center
Sun 05:45:52 PM 43.2758 -82.6219 249° West 442 509 32,000  Level Cleveland Center
Sun 05:46:52 PM 43.2333 -82.7803 250° West 442 509 32,000 -50 Level Cleveland Center
Sun 05:47:52 PM 43.1906 -82.9353 249° West 442 509 31,900  Descending Cleveland Center
Sun 05:48:52 PM 43.1478 -83.0931 250° West 442 509 32,000 50 Climbing Cleveland Center
Sun 05:49:52 PM 43.1044 -83.2533 250° West 442 509 32,000  Level Cleveland Center
Sun 05:50:52 PM 43.0633 -83.4108 250° West 442 509 32,000  Level Cleveland Center
Sun 05:51:52 PM 43.0178 -83.5647 248° West 442 509 32,000  Level Cleveland Center
Sun 05:53:52 PM 42.9522 -83.9050 255° West 447 514 32,000  Level Cleveland Center
Sun 05:56:02 PM 42.9000 -84.2500 258° West 450 518 32,000  Level Toronto Center
Sun 05:57:02 PM 42.8833 -84.4333 263° West 450 518 32,000  Level Toronto Center
Sun 05:58:02 PM 42.8667 -84.6000 262° West 460 529 32,000  Level Toronto Center
Sun 05:59:02 PM 42.8500 -84.7667 262° West 460 529 32,000 -450 Level Toronto Center
Sun 06:00:02 PM 42.8167 -84.9333 255° West 460 529 31,100 -939 Descending Toronto Center
Sun 06:01:29 PM 42.8219 -85.1711 272° West 454 522 29,700 -966 Descending Chicago Center
Sun 06:02:31 PM 42.8036 -85.3403 262° West 453 521 28,700 -968 Descending Chicago Center
Sun 06:03:33 PM 42.7839 -85.5097 261° West 451 519 27,700 -1,065 Descending Chicago Center
Sun 06:04:35 PM 42.7478 -85.7122 256° West 455 524 26,500 -1,065 Descending Chicago Center
Sun 06:05:37 PM 42.7175 -85.8769 256° West 449 517 25,500 -1,306 Descending Chicago Center
Sun 06:06:39 PM 42.6881 -86.0414 256° West 445 512 23,800 -2,081 Descending Chicago Center
Sun 06:07:41 PM 42.6586 -86.2028 256° West 440 506 21,200 -2,274 Descending Chicago Center
Sun 06:08:43 PM 42.6294 -86.3553 255° West 420 483 19,100 -1,645 Descending Chicago Center
Sun 06:09:45 PM 42.6000 -86.5061 255° West 413 475 17,800 -1,306 Descending Chicago Center
Sun 06:10:47 PM 42.5731 -86.6528 256° West 402 463 16,400 -1,344 Descending Chicago Center
Sun 06:11:50 PM 42.5431 -86.7986 254° West 404 465 15,000 -1,452 Descending Chicago Center
Sun 06:12:51 PM 42.4961 -86.9642 249° West 396 456 13,400 -1,403 Descending Chicago Center
Sun 06:13:54 PM 42.4572 -87.0967 248° West 384 442 12,100 -1,248 Descending Chicago Center
Sun 06:14:56 PM 42.4225 -87.2267 250° West 373 429 10,800 -1,016 Descending Chicago Center
Sun 06:15:58 PM 42.3881 -87.3550 250° West 367 422 10,000 -387 Descending Chicago Center
Sun 06:17:00 PM 42.3528 -87.4819 249° West 359 413 10,000 -38 Level Chicago Center
Sun 06:18:38 PM 42.2333 -87.6500 226° Southwest 360 414 9,900 -190 Descending Chicago TRACON
Sun 06:19:38 PM 42.1500 -87.7333 217° Southwest 306 352 9,500 -1,040 Descending Chicago TRACON
Sun 06:21:08 PM 42.0900 -87.8397 233° Southwest 304 350 7,300 -1,181 Descending Chicago Center
Sun 06:21:45 PM 42.1000 -87.9167 280° West 269 310 7,000 -186 Descending Chicago TRACON
Sun 06:22:45 PM 42.1000 -88.0000 270° West 220 253 7,000  Level Chicago TRACON
Sun 06:23:45 PM 42.0833 -88.0833 255° West 213 245 7,000 -579 Level Chicago TRACON
Sun 06:24:39 PM 42.0833 -88.1500 270° West 211 243 5,900 -1,121 Descending Chicago TRACON
Sun 06:25:16 PM 42.0906 -88.1961 282° West 214 246 5,300 -1,080 Descending Chicago Center
Sun 06:26:19 PM 42.0697 -88.2622 247° West 226 260 4,100 -624 Descending Chicago Center
Sun 06:27:21 PM 42.0106 -88.2656 182° South 217 250 4,000 -48 Descending Chicago Center
Sun 06:28:23 PM 41.9725 -88.1986 127° Southeast 189 217 4,000 -242 Level Chicago Center
Sun 06:29:25 PM 41.9672 -88.1331 96° East 180 207 3,500 -677 Descending Chicago Center
Sun 06:30:27 PM 41.9683 -88.0650 89° East 179 206 2,600 -919 Descending Chicago Center
Sun 06:31:29 PM 41.9686 -88.0017 90° East 177 204 1,600 -812 Descending Chicago Center
Sun 06:32:40 PM 41.9667 -87.9333 92° East 126 145 800 -676 Descending Chicago TRACON

Login

Don't have an account? Register now (free) for customized features, flight alerts, and more!